createdAt,value
2017-06-09T00:01:16.152Z,13.80
2017-06-09T00:03:43.159Z,13.80
2017-06-09T00:06:10.145Z,13.80
2017-06-09T00:08:37.251Z,13.70
2017-06-09T00:11:04.245Z,13.70
2017-06-09T00:13:32.056Z,13.70
2017-06-09T00:15:59.047Z,13.70
2017-06-09T00:18:26.028Z,13.70
2017-06-09T00:20:53.059Z,13.60
2017-06-09T00:23:20.809Z,13.70
2017-06-09T00:25:48.696Z,13.70
2017-06-09T00:28:15.692Z,13.60
2017-06-09T00:30:42.703Z,13.70
2017-06-09T00:33:09.698Z,13.70
2017-06-09T00:35:36.715Z,13.60
2017-06-09T00:38:03.704Z,13.70
2017-06-09T00:40:31.507Z,13.70
2017-06-09T00:42:58.497Z,13.70
2017-06-09T00:45:25.489Z,13.70
2017-06-09T00:47:52.508Z,13.70
2017-06-09T00:50:20.267Z,13.70
2017-06-09T00:52:47.280Z,13.60
2017-06-09T00:55:14.271Z,13.70
2017-06-09T00:57:41.292Z,13.70
2017-06-09T01:00:08.310Z,13.70
2017-06-09T01:02:35.323Z,13.70
2017-06-09T01:05:02.312Z,13.70
2017-06-09T01:07:29.329Z,13.70
2017-06-09T01:09:56.319Z,13.70
2017-06-09T01:12:23.493Z,13.70
2017-06-09T01:14:51.255Z,13.70
2017-06-09T01:17:19.020Z,13.70
2017-06-09T01:19:46.835Z,13.70
2017-06-09T01:22:13.826Z,13.70
2017-06-09T01:24:41.641Z,13.70
2017-06-09T01:27:08.644Z,13.70
2017-06-09T01:29:36.454Z,13.70
2017-06-09T01:32:03.444Z,13.70
2017-06-09T01:34:30.482Z,13.70
2017-06-09T01:36:57.507Z,13.70
2017-06-09T01:39:24.507Z,13.70
2017-06-09T01:41:51.520Z,13.60
2017-06-09T01:44:18.524Z,13.60
2017-06-09T01:46:45.565Z,13.60
2017-06-09T01:49:12.588Z,13.60
2017-06-09T01:51:40.376Z,13.60
2017-06-09T01:54:07.415Z,13.60
2017-06-09T01:56:34.431Z,13.60
2017-06-09T01:59:01.465Z,13.60
2017-06-09T02:01:28.457Z,13.50
2017-06-09T02:03:55.476Z,13.50
2017-06-09T02:06:23.235Z,13.50
2017-06-09T02:08:50.985Z,13.60
2017-06-09T02:11:17.998Z,13.60
2017-06-09T02:13:44.982Z,13.60
2017-06-09T02:16:12.231Z,13.60
2017-06-09T02:18:39.211Z,13.60
2017-06-09T02:21:06.199Z,13.60
2017-06-09T02:23:33.233Z,13.60
2017-06-09T02:26:00.223Z,13.70
2017-06-09T02:28:27.239Z,13.50
2017-06-09T02:30:54.239Z,13.60
2017-06-09T02:33:21.466Z,13.70
2017-06-09T02:35:49.218Z,13.70
2017-06-09T02:38:16.203Z,13.60
2017-06-09T02:40:43.221Z,13.60
2017-06-09T02:43:10.979Z,13.70
2017-06-09T02:45:38.011Z,13.60
2017-06-09T02:48:05.002Z,13.70
2017-06-09T02:50:32.230Z,13.70
2017-06-09T02:52:59.978Z,13.70
2017-06-09T02:55:26.955Z,13.70
2017-06-09T02:57:54.731Z,13.80
2017-06-09T03:00:21.715Z,13.80
2017-06-09T03:02:48.725Z,13.90
2017-06-09T03:05:15.698Z,14.00
2017-06-09T03:07:42.728Z,14.00
2017-06-09T03:10:09.707Z,14.20
2017-06-09T03:12:36.691Z,14.20
2017-06-09T03:15:04.466Z,14.20
2017-06-09T03:17:31.546Z,14.20
2017-06-09T03:19:58.541Z,14.20
2017-06-09T03:22:26.315Z,14.40
2017-06-09T03:24:54.091Z,14.40
2017-06-09T03:27:21.091Z,14.30
2017-06-09T03:29:48.067Z,14.30
2017-06-09T03:32:15.849Z,14.40
2017-06-09T03:34:42.838Z,14.30
2017-06-09T03:37:09.842Z,14.40
2017-06-09T03:39:36.825Z,14.40
2017-06-09T03:42:03.831Z,14.40
2017-06-09T03:44:30.831Z,14.50
2017-06-09T03:46:57.845Z,14.50
2017-06-09T03:49:24.824Z,14.50
2017-06-09T03:51:51.869Z,14.50
2017-06-09T03:54:18.849Z,14.50
2017-06-09T03:56:46.639Z,14.70
2017-06-09T03:59:13.631Z,14.70
2017-06-09T04:01:40.784Z,14.80
2017-06-09T04:04:07.761Z,14.80
2017-06-09T04:06:34.739Z,14.90
2017-06-09T04:09:01.755Z,15.00
2017-06-09T04:11:28.736Z,15.00
2017-06-09T04:13:55.759Z,15.20
2017-06-09T04:16:22.825Z,15.20
2017-06-09T04:18:49.822Z,15.40
2017-06-09T04:21:17.567Z,15.50
2017-06-09T04:23:44.570Z,15.50
2017-06-09T04:26:11.553Z,15.60
2017-06-09T04:28:38.563Z,15.50
2017-06-09T04:31:05.554Z,15.50
2017-06-09T04:33:32.568Z,15.40
2017-06-09T04:35:59.593Z,15.50
2017-06-09T04:38:26.623Z,15.50
2017-06-09T04:40:53.606Z,15.50
2017-06-09T04:43:20.619Z,15.50
2017-06-09T04:45:47.635Z,15.50
2017-06-09T04:48:14.663Z,15.40
2017-06-09T04:50:41.678Z,15.50
2017-06-09T04:53:08.653Z,15.50
2017-06-09T04:55:35.755Z,15.50
2017-06-09T04:58:02.727Z,15.40
2017-06-09T05:00:29.714Z,15.50
2017-06-09T05:02:57.495Z,15.70
2017-06-09T05:05:25.244Z,15.70
2017-06-09T05:07:53.055Z,15.90
2017-06-09T05:10:20.034Z,15.90
2017-06-09T05:12:47.204Z,16.20
2017-06-09T05:15:14.195Z,16.30
2017-06-09T05:17:41.183Z,16.40
2017-06-09T05:20:08.192Z,16.50
2017-06-09T05:22:35.178Z,16.70
2017-06-09T05:25:02.191Z,16.80
2017-06-09T05:27:29.171Z,16.90
2017-06-09T05:29:56.185Z,16.90
2017-06-09T05:32:23.165Z,17.30
2017-06-09T05:34:50.167Z,17.60
2017-06-09T05:37:17.144Z,17.70
2017-06-09T05:39:44.315Z,17.70
2017-06-09T05:42:12.059Z,18.00
2017-06-09T05:44:39.057Z,18.00
2017-06-09T05:47:06.070Z,18.20
2017-06-09T05:49:33.049Z,18.20
2017-06-09T05:52:00.054Z,18.40
2017-06-09T05:54:27.041Z,18.30
2017-06-09T05:56:54.056Z,18.20
2017-06-09T05:59:21.814Z,18.00
2017-06-09T06:01:48.859Z,18.00
2017-06-09T06:04:15.834Z,17.90
2017-06-09T06:06:42.815Z,17.60
2017-06-09T06:09:09.831Z,17.50
2017-06-09T06:11:36.810Z,17.50
2017-06-09T06:14:03.832Z,17.40
2017-06-09T06:16:30.810Z,17.30
2017-06-09T06:18:57.807Z,17.30
2017-06-09T06:21:24.813Z,17.30
2017-06-09T06:23:51.793Z,17.50
2017-06-09T06:26:19.570Z,17.70
2017-06-09T06:28:46.550Z,17.70
2017-06-09T06:31:13.571Z,17.90
2017-06-09T06:33:40.550Z,18.10
2017-06-09T06:36:07.547Z,18.10
2017-06-09T06:38:34.542Z,18.10
2017-06-09T06:41:01.528Z,18.00
2017-06-09T06:43:29.315Z,18.40
2017-06-09T06:45:56.299Z,18.30
2017-06-09T06:48:23.287Z,18.50
2017-06-09T06:50:51.063Z,19.00
2017-06-09T06:53:18.039Z,18.90
2017-06-09T06:55:45.051Z,19.10
2017-06-09T06:58:12.303Z,19.10
2017-06-09T07:00:39.311Z,19.10
2017-06-09T07:03:06.299Z,19.10
2017-06-09T07:05:33.372Z,19.00
2017-06-09T07:08:00.351Z,18.90
2017-06-09T07:10:27.322Z,18.80
2017-06-09T07:12:55.122Z,19.10
2017-06-09T07:15:22.151Z,19.10
2017-06-09T07:17:49.140Z,19.20
2017-06-09T07:20:16.167Z,19.40
2017-06-09T07:22:43.147Z,19.60
2017-06-09T07:25:10.127Z,19.70
2017-06-09T07:27:37.148Z,19.80
2017-06-09T07:30:04.915Z,20.10
2017-06-09T07:32:32.690Z,20.20
2017-06-09T07:35:00.434Z,20.40
2017-06-09T07:37:27.407Z,20.30
2017-06-09T07:39:54.407Z,20.50
2017-06-09T07:42:21.392Z,20.60
2017-06-09T07:44:48.400Z,20.60
2017-06-09T07:47:15.382Z,20.90
2017-06-09T07:49:43.163Z,21.10
2017-06-09T07:52:10.155Z,21.00
2017-06-09T07:54:37.176Z,21.10
2017-06-09T07:57:04.159Z,21.40
2017-06-09T07:59:31.147Z,21.40
2017-06-09T08:01:58.162Z,21.50
2017-06-09T08:04:25.918Z,21.70
2017-06-09T08:06:53.033Z,21.70
2017-06-09T08:09:20.183Z,21.90
2017-06-09T08:11:47.199Z,22.10
2017-06-09T08:14:14.179Z,22.40
2017-06-09T08:16:41.227Z,22.60
2017-06-09T08:19:08.367Z,22.50
2017-06-09T08:21:35.343Z,22.20
2017-06-09T08:24:02.603Z,22.00
2017-06-09T08:26:29.591Z,21.90
2017-06-09T08:28:56.842Z,22.20
2017-06-09T08:31:23.847Z,22.50
2017-06-09T08:33:50.832Z,22.80
2017-06-09T08:36:17.944Z,23.00
2017-06-09T08:38:44.935Z,23.10
2017-06-09T08:41:11.906Z,23.30
2017-06-09T08:43:38.939Z,23.50
2017-06-09T08:46:05.918Z,23.50
2017-06-09T08:48:32.922Z,23.40
2017-06-09T08:50:59.911Z,23.40
2017-06-09T08:53:27.371Z,23.40
2017-06-09T08:55:54.351Z,23.50
2017-06-09T08:58:21.468Z,23.60
2017-06-09T09:00:48.490Z,23.30
2017-06-09T09:03:15.480Z,23.30
2017-06-09T09:05:43.271Z,23.10
2017-06-09T09:08:10.252Z,23.00
2017-06-09T09:10:37.275Z,22.60
2017-06-09T09:13:04.269Z,22.40
2017-06-09T09:15:32.022Z,22.00
2017-06-09T09:18:00.533Z,22.00
2017-06-09T09:20:27.523Z,22.00
2017-06-09T09:22:54.566Z,22.20
2017-06-09T09:25:21.550Z,22.40
2017-06-09T09:27:48.530Z,22.80
2017-06-09T09:30:15.598Z,23.00
2017-06-09T09:32:42.585Z,23.20
2017-06-09T09:35:09.631Z,23.50
2017-06-09T09:37:36.611Z,23.90
2017-06-09T09:40:03.622Z,23.90
2017-06-09T09:42:30.614Z,23.80
2017-06-09T09:44:57.638Z,23.50
2017-06-09T09:47:25.429Z,23.20
2017-06-09T09:49:52.418Z,23.20
2017-06-09T09:52:19.458Z,23.10
2017-06-09T09:54:46.447Z,23.00
2017-06-09T09:57:13.471Z,23.00
2017-06-09T09:59:41.231Z,23.30
2017-06-09T10:02:09.008Z,23.50
2017-06-09T10:04:36.765Z,23.40
2017-06-09T10:07:04.540Z,23.00
2017-06-09T10:09:31.524Z,23.00
2017-06-09T10:11:58.535Z,23.10
2017-06-09T10:14:25.526Z,23.10
2017-06-09T10:16:52.539Z,23.60
2017-06-09T10:19:19.519Z,23.80
2017-06-09T10:21:46.553Z,24.30
2017-06-09T10:24:13.547Z,24.40
2017-06-09T10:26:40.587Z,24.50
2017-06-09T10:29:07.567Z,24.70
2017-06-09T10:31:34.819Z,24.80
2017-06-09T10:34:01.795Z,24.80
2017-06-09T10:36:28.777Z,24.80
2017-06-09T10:38:55.782Z,24.70
2017-06-09T10:41:22.804Z,24.60
2017-06-09T10:43:49.943Z,24.80
2017-06-09T10:46:16.931Z,24.90
2017-06-09T10:48:43.917Z,24.60
2017-06-09T10:51:10.929Z,24.60
2017-06-09T10:53:37.909Z,24.50
2017-06-09T10:56:04.917Z,24.50
2017-06-09T10:58:31.913Z,24.40
2017-06-09T11:00:58.944Z,24.50
2017-06-09T11:03:25.919Z,24.60
2017-06-09T11:05:52.899Z,24.60
2017-06-09T11:08:19.973Z,24.80
2017-06-09T11:10:46.963Z,24.60
2017-06-09T11:13:14.003Z,24.60
2017-06-09T11:15:41.115Z,24.80
2017-06-09T11:18:08.177Z,24.70
2017-06-09T11:20:35.191Z,24.70
2017-06-09T11:23:02.179Z,24.80
2017-06-09T11:25:29.216Z,25.00
2017-06-09T11:27:56.207Z,25.40
2017-06-09T11:30:23.993Z,25.10
2017-06-09T11:32:51.139Z,25.10
2017-06-09T11:35:18.206Z,25.20
2017-06-09T11:37:45.251Z,25.00
2017-06-09T11:40:12.375Z,24.60
2017-06-09T11:42:39.398Z,24.40
2017-06-09T11:45:07.214Z,23.90
2017-06-09T11:47:34.312Z,23.90
2017-06-09T11:50:02.083Z,23.70
2017-06-09T11:52:30.235Z,23.80
2017-06-09T11:54:57.231Z,23.80
2017-06-09T11:57:24.267Z,23.80
2017-06-09T11:59:51.324Z,23.60
2017-06-09T12:02:18.308Z,23.50
2017-06-09T12:04:45.339Z,23.50
2017-06-09T12:07:12.318Z,23.60
2017-06-09T12:09:39.302Z,23.50
2017-06-09T12:12:06.335Z,23.50
2017-06-09T12:14:33.312Z,23.50
2017-06-09T12:17:00.337Z,23.40
2017-06-09T12:19:27.325Z,23.50
2017-06-09T12:21:54.342Z,23.60
2017-06-09T12:24:21.330Z,23.60
2017-06-09T12:26:48.334Z,23.60
2017-06-09T12:29:15.370Z,23.60
2017-06-09T12:31:42.347Z,23.70
2017-06-09T12:34:09.343Z,23.70
2017-06-09T12:36:36.371Z,23.60
2017-06-09T12:39:03.399Z,23.50
2017-06-09T12:41:30.427Z,23.50
2017-06-09T12:43:57.506Z,23.40
2017-06-09T12:46:24.530Z,23.40
2017-06-09T12:48:51.519Z,23.30
2017-06-09T12:51:19.313Z,23.30
2017-06-09T12:53:46.299Z,23.30
2017-06-09T12:56:13.291Z,23.30
2017-06-09T12:58:40.301Z,23.30
2017-06-09T13:01:07.283Z,23.40
2017-06-09T13:03:34.296Z,23.60
2017-06-09T13:06:01.278Z,23.60
2017-06-09T13:08:28.353Z,23.80
2017-06-09T13:10:55.332Z,23.70
2017-06-09T13:13:22.355Z,23.90
2017-06-09T13:15:49.359Z,24.00
2017-06-09T13:18:16.367Z,24.10
2017-06-09T13:20:43.351Z,24.20
2017-06-09T13:23:10.394Z,24.40
2017-06-09T13:25:37.389Z,24.30
2017-06-09T13:28:04.413Z,24.30
2017-06-09T13:30:31.429Z,24.30
2017-06-09T13:32:58.422Z,24.40
2017-06-09T13:35:25.435Z,24.20
2017-06-09T13:37:52.420Z,24.20
2017-06-09T13:40:19.426Z,24.00
2017-06-09T13:42:46.406Z,24.10
2017-06-09T13:45:13.417Z,24.00
2017-06-09T13:47:40.427Z,24.20
2017-06-09T13:50:08.187Z,24.40
2017-06-09T13:52:35.234Z,24.30
2017-06-09T13:55:02.214Z,24.30
2017-06-09T13:57:29.219Z,24.40
2017-06-09T13:59:56.236Z,24.40
2017-06-09T14:02:23.214Z,24.30
2017-06-09T14:04:50.394Z,23.60
2017-06-09T14:07:17.395Z,21.90
2017-06-09T14:09:44.390Z,20.60
2017-06-09T14:12:11.431Z,20.20
2017-06-09T14:14:38.423Z,20.20
2017-06-09T14:17:05.439Z,19.90
2017-06-09T14:19:32.419Z,19.30
2017-06-09T14:21:59.465Z,18.90
2017-06-09T14:24:26.466Z,18.60
2017-06-09T14:26:53.484Z,18.10
2017-06-09T14:29:20.474Z,17.60
2017-06-09T14:31:47.487Z,17.10
2017-06-09T14:34:14.485Z,15.40
2017-06-09T14:36:41.495Z,15.10
2017-06-09T14:39:08.480Z,15.20
2017-06-09T14:41:35.658Z,15.20
2017-06-09T14:44:02.640Z,15.30
2017-06-09T14:46:29.638Z,15.40
2017-06-09T14:48:56.697Z,15.50
2017-06-09T14:51:23.766Z,15.20
2017-06-09T14:53:51.885Z,15.30
2017-06-09T14:56:18.883Z,15.30
2017-06-09T14:58:46.800Z,15.70
2017-06-09T15:01:13.798Z,15.70
2017-06-09T15:03:41.548Z,15.40
2017-06-09T15:06:08.552Z,15.40
2017-06-09T15:08:35.571Z,15.40
2017-06-09T15:11:02.635Z,15.40
2017-06-09T15:13:29.628Z,15.50
2017-06-09T15:15:56.645Z,15.40
2017-06-09T15:18:23.631Z,15.40
2017-06-09T15:20:51.795Z,15.40
2017-06-09T15:23:18.816Z,15.40
2017-06-09T15:25:46.131Z,15.30
2017-06-09T15:28:13.345Z,15.30
2017-06-09T15:30:40.328Z,15.20
2017-06-09T15:33:07.342Z,15.00
2017-06-09T15:35:35.123Z,14.70
2017-06-09T15:38:02.871Z,14.60
2017-06-09T15:40:30.662Z,14.80
2017-06-09T15:42:57.647Z,14.80
2017-06-09T15:45:24.671Z,14.70
2017-06-09T15:47:51.652Z,14.60
2017-06-09T15:50:18.640Z,14.60
2017-06-09T15:52:46.418Z,14.70
2017-06-09T15:55:13.639Z,14.70
2017-06-09T15:57:41.399Z,14.60
2017-06-09T16:00:09.155Z,14.50
2017-06-09T16:02:36.174Z,14.40
2017-06-09T16:05:03.161Z,14.40
2017-06-09T16:07:30.947Z,14.30
2017-06-09T16:09:57.945Z,14.30
2017-06-09T16:12:24.971Z,14.40
2017-06-09T16:14:51.979Z,14.30
2017-06-09T16:17:19.018Z,14.30
2017-06-09T16:19:46.763Z,14.40
2017-06-09T16:22:13.746Z,14.30
2017-06-09T16:24:40.783Z,14.50
2017-06-09T16:27:07.774Z,14.50
2017-06-09T16:29:34.962Z,14.50
2017-06-09T16:32:02.704Z,14.40
2017-06-09T16:34:29.692Z,14.40
2017-06-09T16:36:56.707Z,14.50
2017-06-09T16:39:23.738Z,14.50
2017-06-09T16:41:50.756Z,14.30
2017-06-09T16:44:17.737Z,14.30
2017-06-09T16:46:44.858Z,14.40
2017-06-09T16:49:11.841Z,14.50
2017-06-09T16:51:38.875Z,14.50
2017-06-09T16:54:05.895Z,14.50
2017-06-09T16:56:32.875Z,14.50
2017-06-09T16:58:59.916Z,14.50
2017-06-09T17:01:26.915Z,14.50
2017-06-09T17:03:53.926Z,14.40
2017-06-09T17:06:21.672Z,14.00
2017-06-09T17:08:48.675Z,14.00
2017-06-09T17:11:15.663Z,14.10
2017-06-09T17:13:42.703Z,14.00
2017-06-09T17:16:09.711Z,13.90
2017-06-09T17:18:36.690Z,13.90
2017-06-09T17:21:03.698Z,13.90
2017-06-09T17:23:30.682Z,13.90
2017-06-09T17:25:57.689Z,13.80
2017-06-09T17:28:24.683Z,13.90
2017-06-09T17:30:51.687Z,13.90
2017-06-09T17:33:18.675Z,13.90
2017-06-09T17:35:45.682Z,13.90
2017-06-09T17:38:12.659Z,14.00
2017-06-09T17:40:39.685Z,13.90
2017-06-09T17:43:06.983Z,13.90
2017-06-09T17:45:34.847Z,13.90
2017-06-09T17:48:01.869Z,13.90
2017-06-09T17:50:28.935Z,13.80
2017-06-09T17:52:55.951Z,13.70
2017-06-09T17:55:22.930Z,13.70
2017-06-09T17:57:50.139Z,13.70
2017-06-09T18:00:17.928Z,13.70
2017-06-09T18:02:45.097Z,13.70
2017-06-09T18:05:12.079Z,13.80
2017-06-09T18:07:39.058Z,13.80
2017-06-09T18:10:06.079Z,13.80
2017-06-09T18:12:33.114Z,13.80
2017-06-09T18:15:00.129Z,13.80
2017-06-09T18:17:27.110Z,13.90
2017-06-09T18:19:54.129Z,13.90
2017-06-09T18:22:21.883Z,13.90
2017-06-09T18:24:49.988Z,13.90
2017-06-09T18:27:16.969Z,13.80
2017-06-09T18:29:43.995Z,13.90
2017-06-09T18:32:11.020Z,14.00
2017-06-09T18:34:38.103Z,13.90
2017-06-09T18:37:05.121Z,14.00
2017-06-09T18:39:32.473Z,13.90
2017-06-09T18:41:59.487Z,14.00
2017-06-09T18:44:26.472Z,14.00
2017-06-09T18:46:53.484Z,13.90
2017-06-09T18:49:20.462Z,13.80
2017-06-09T18:51:47.475Z,13.80
2017-06-09T18:54:14.459Z,13.80
2017-06-09T18:56:41.678Z,13.80
2017-06-09T18:59:08.668Z,13.80
2017-06-09T19:01:35.681Z,13.70
2017-06-09T19:04:03.462Z,13.70
2017-06-09T19:06:30.450Z,13.70
2017-06-09T19:08:57.475Z,13.70
2017-06-09T19:11:24.459Z,13.60
2017-06-09T19:13:51.439Z,13.60
2017-06-09T19:16:18.443Z,13.60
2017-06-09T19:18:45.431Z,13.50
2017-06-09T19:21:12.446Z,13.50
2017-06-09T19:23:39.433Z,13.50
2017-06-09T19:26:06.643Z,13.50
2017-06-09T19:28:33.630Z,13.50
2017-06-09T19:31:00.635Z,13.50
2017-06-09T19:33:27.698Z,13.60
2017-06-09T19:35:54.715Z,13.50
2017-06-09T19:38:21.745Z,13.60
2017-06-09T19:40:48.732Z,13.60
2017-06-09T19:43:15.743Z,13.60
2017-06-09T19:45:42.723Z,13.70
2017-06-09T19:48:10.550Z,13.60
2017-06-09T19:50:37.564Z,13.60
2017-06-09T19:53:04.547Z,13.70
2017-06-09T19:55:31.713Z,13.80
2017-06-09T19:57:58.699Z,13.80
2017-06-09T20:00:25.690Z,13.90
2017-06-09T20:02:52.695Z,13.80
2017-06-09T20:07:53.119Z,13.80
2017-06-09T20:10:20.891Z,13.70
2017-06-09T20:12:47.873Z,13.70
2017-06-09T20:15:14.887Z,13.70
2017-06-09T20:17:41.870Z,13.60
2017-06-09T20:20:08.875Z,13.50
2017-06-09T20:22:35.861Z,13.40
2017-06-09T20:25:02.882Z,13.50
2017-06-09T20:27:29.871Z,13.50
2017-06-09T20:29:56.890Z,13.40
2017-06-09T20:32:23.883Z,13.50
2017-06-09T20:34:51.643Z,13.50
2017-06-09T20:37:19.419Z,13.60
2017-06-09T20:39:46.408Z,13.60
2017-06-09T20:42:13.454Z,13.70
2017-06-09T20:44:40.504Z,13.70
2017-06-09T20:47:07.514Z,13.70
2017-06-09T20:49:34.547Z,13.70
2017-06-09T20:52:01.556Z,13.70
2017-06-09T20:54:28.571Z,13.80
2017-06-09T20:56:55.559Z,13.90
2017-06-09T20:59:22.579Z,13.80
2017-06-09T21:01:49.571Z,13.80
2017-06-09T21:04:17.512Z,13.90
2017-06-09T21:06:44.524Z,13.90
2017-06-09T21:09:11.520Z,14.00
2017-06-09T21:11:38.780Z,14.00
2017-06-09T21:14:06.529Z,14.00
2017-06-09T21:16:33.696Z,14.00
2017-06-09T21:19:01.459Z,14.10
2017-06-09T21:21:29.217Z,14.10
2017-06-09T21:23:56.231Z,14.10
2017-06-09T21:26:23.268Z,14.10
2017-06-09T21:28:50.324Z,14.10
2017-06-09T21:31:17.310Z,14.10
2017-06-09T21:33:45.107Z,14.00
2017-06-09T21:36:12.095Z,14.00
2017-06-09T21:38:39.099Z,14.00
2017-06-09T21:41:06.116Z,14.00
2017-06-09T21:43:33.875Z,13.80
2017-06-09T21:46:02.045Z,13.90
2017-06-09T21:48:29.800Z,13.80
2017-06-09T21:50:56.895Z,13.80
2017-06-09T21:53:23.883Z,13.80
2017-06-09T21:55:50.868Z,13.80
2017-06-09T21:58:17.934Z,13.80
2017-06-09T22:00:49.044Z,13.80
2017-06-09T22:03:16.834Z,13.80
2017-06-09T22:05:43.821Z,13.80
2017-06-09T22:08:10.838Z,13.80
2017-06-09T22:10:37.822Z,13.70
2017-06-09T22:13:04.814Z,13.70
2017-06-09T22:15:31.842Z,13.60
2017-06-09T22:17:58.894Z,13.60
2017-06-09T22:20:25.915Z,13.50
2017-06-09T22:22:52.911Z,13.50
2017-06-09T22:25:19.913Z,13.50
2017-06-09T22:27:46.904Z,13.50
2017-06-09T22:30:14.050Z,13.40
2017-06-09T22:32:41.054Z,13.40
2017-06-09T22:35:08.026Z,13.40
2017-06-09T22:37:35.046Z,13.30
2017-06-09T22:40:02.023Z,13.40
2017-06-09T22:42:29.074Z,13.30
2017-06-09T22:44:56.093Z,13.20
2017-06-09T22:47:23.893Z,13.10
2017-06-09T22:49:50.923Z,13.00
2017-06-09T22:52:17.934Z,13.00
2017-06-09T22:54:44.918Z,12.90
2017-06-09T22:57:11.988Z,12.80
2017-06-09T22:59:39.016Z,12.80
2017-06-09T23:02:06.016Z,12.80
2017-06-09T23:04:33.036Z,12.90
2017-06-09T23:07:00.032Z,13.00
2017-06-09T23:09:27.853Z,13.00
2017-06-09T23:11:54.829Z,13.00
2017-06-09T23:14:21.853Z,13.10
2017-06-09T23:16:48.830Z,13.00
2017-06-09T23:19:16.579Z,12.90
2017-06-09T23:21:43.601Z,12.90
2017-06-09T23:24:10.606Z,12.80
2017-06-09T23:26:37.617Z,12.70
2017-06-09T23:29:04.594Z,12.60
2017-06-09T23:31:31.987Z,12.50
2017-06-09T23:33:59.074Z,12.40
2017-06-09T23:36:26.836Z,12.30
2017-06-09T23:38:53.847Z,12.30
2017-06-09T23:41:21.404Z,12.30
2017-06-09T23:43:48.396Z,12.20
2017-06-09T23:46:16.175Z,12.20
2017-06-09T23:48:43.937Z,12.30
2017-06-09T23:51:10.949Z,12.20
2017-06-09T23:53:37.960Z,12.30
2017-06-09T23:56:04.989Z,12.30
2017-06-09T23:58:32.026Z,12.30
